Time;durP1;ratioP1;P1;durP2;ratioP2;P2;SDS_P1;SDS_P2;PMS_P1;PMS_P2;Temp;Humidity;BMP_temperature;BMP_pressure;BME280_temperature;BME280_humidity;BME280_pressure;Samples;Min_cycle;Max_cycle;Signal;HPM_P1;HPM_P2
2021/01/17 00:00:15;;;;;;;21.60;10.30;;;;;;;0.72;61.71;96690.25;5069127;28;20183;-69
2021/01/17 00:02:43;;;;;;;20.67;10.87;;;;;;;0.68;62.30;96686.22;5055797;28;20271;-68
2021/01/17 00:05:29;;;;;;;20.47;10.67;;;;;;;0.67;62.56;96671.66;5056244;28;20481;-71
2021/01/17 00:07:57;;;;;;;21.77;11.80;;;;;;;0.52;62.49;96665.78;5074278;28;20455;-70
2021/01/17 00:10:26;;;;;;;20.17;12.07;;;;;;;0.63;62.70;96662.47;5072470;28;20431;-68
2021/01/17 00:12:53;;;;;;;20.07;11.47;;;;;;;0.64;62.76;96646.06;5071281;28;20527;-68
2021/01/17 00:15:19;;;;;;;20.73;11.47;;;;;;;0.54;62.93;96633.00;5072672;28;20519;-67
2021/01/17 00:17:46;;;;;;;19.43;10.90;;;;;;;0.50;63.06;96638.47;5071884;28;20486;-68
2021/01/17 00:20:16;;;;;;;20.03;10.60;;;;;;;0.53;63.13;96633.06;5071846;28;20496;-69
2021/01/17 00:22:43;;;;;;;23.90;11.63;;;;;;;0.30;63.38;96625.97;5072250;28;20475;-69
2021/01/17 00:25:13;;;;;;;22.20;11.17;;;;;;;0.34;63.70;96621.44;5060617;28;20429;-70
2021/01/17 00:27:39;;;;;;;20.80;11.67;;;;;;;0.50;64.14;96623.00;5067620;28;21074;-68
2021/01/17 00:30:07;;;;;;;20.70;11.57;;;;;;;0.60;63.56;96624.81;5066910;28;20530;-69
2021/01/17 00:32:33;;;;;;;20.13;12.20;;;;;;;0.45;63.78;96613.81;5060895;28;20199;-68
2021/01/17 00:34:59;;;;;;;19.57;11.33;;;;;;;0.55;63.97;96610.59;5068300;28;20412;-70
2021/01/17 00:37:24;;;;;;;19.77;12.07;;;;;;;0.58;63.54;96600.06;5071063;28;20424;-67
2021/01/17 00:39:50;;;;;;;18.93;10.93;;;;;;;0.52;63.45;96611.63;5071422;28;21068;-69
2021/01/17 00:42:17;;;;;;;19.83;10.93;;;;;;;0.48;63.62;96606.78;5065546;28;20214;-68
2021/01/17 00:44:43;;;;;;;19.67;11.07;;;;;;;0.63;64.05;96595.41;5072492;28;20195;-69
2021/01/17 00:47:15;;;;;;;18.67;11.07;;;;;;;0.68;63.30;96597.69;5059773;28;21100;-66
2021/01/17 00:49:44;;;;;;;19.00;11.20;;;;;;;0.63;63.66;96597.19;5074744;28;20429;-68
2021/01/17 00:52:20;;;;;;;22.40;11.40;;;;;;;0.62;63.68;96591.22;5058553;28;20447;-69
2021/01/17 00:54:46;;;;;;;19.60;10.20;;;;;;;0.60;63.59;96598.22;5074756;28;20435;-67
2021/01/17 00:57:13;;;;;;;18.50;10.90;;;;;;;0.62;63.51;96583.47;5074245;28;20413;-68
2021/01/17 00:59:39;;;;;;;20.67;10.80;;;;;;;0.59;63.97;96591.41;5073893;28;20424;-68
2021/01/17 01:02:05;;;;;;;22.17;10.97;;;;;;;0.65;64.06;96590.16;5073116;28;20461;-68
2021/01/17 01:04:31;;;;;;;18.93;11.13;;;;;;;0.72;63.96;96584.47;5069302;28;20178;-68
2021/01/17 01:06:56;;;;;;;21.37;11.33;;;;;;;0.71;64.11;96575.09;5071555;28;20868;-69
2021/01/17 01:09:23;;;;;;;20.67;11.87;;;;;;;0.76;63.73;96580.72;5063427;28;20590;-68
2021/01/17 01:11:49;;;;;;;20.13;11.83;;;;;;;0.72;63.60;96579.31;5070244;28;20205;-67
2021/01/17 01:14:15;;;;;;;21.90;12.47;;;;;;;0.74;63.44;96574.88;5074183;28;20892;-67
2021/01/17 01:16:48;;;;;;;21.27;11.87;;;;;;;0.69;63.35;96568.41;5073424;28;20416;-68
2021/01/17 01:19:13;;;;;;;20.93;11.73;;;;;;;0.63;63.82;96566.22;5075066;28;20413;-68
2021/01/17 01:21:39;;;;;;;21.63;13.10;;;;;;;0.66;63.92;96561.69;5066677;28;20463;-69
2021/01/17 01:24:05;;;;;;;20.80;12.97;;;;;;;0.64;63.59;96558.38;5075026;28;20239;-68
2021/01/17 01:26:42;;;;;;;24.70;13.90;;;;;;;0.50;64.74;96561.91;5074056;28;20210;-67
2021/01/17 01:29:08;;;;;;;27.07;14.83;;;;;;;0.63;64.10;96561.06;5073130;28;20466;-67
2021/01/17 01:31:35;;;;;;;24.10;14.13;;;;;;;0.66;64.21;96560.88;5072143;28;20998;-68
2021/01/17 01:34:01;;;;;;;25.83;15.13;;;;;;;0.63;63.93;96555.91;5057071;28;20432;-68
2021/01/17 01:36:35;;;;;;;26.30;14.83;;;;;;;0.63;63.92;96551.56;5068291;28;20761;-68
2021/01/17 01:39:03;;;;;;;30.67;15.70;;;;;;;0.57;64.35;96552.00;5074346;28;20185;-66
2021/01/17 01:41:32;;;;;;;28.93;15.60;;;;;;;0.55;64.16;96544.38;5074344;28;20792;-67
2021/01/17 01:43:58;;;;;;;28.20;16.50;;;;;;;0.43;65.01;96545.22;5038617;28;20463;-69
2021/01/17 01:46:26;;;;;;;29.57;16.20;;;;;;;0.54;64.43;96541.88;5056093;28;20473;-67
2021/01/17 01:48:53;;;;;;;27.83;14.93;;;;;;;0.26;64.97;96533.47;5046890;28;20417;-68
2021/01/17 01:51:20;;;;;;;28.27;16.30;;;;;;;0.49;64.44;96538.81;5073922;28;20447;-67
2021/01/17 01:53:46;;;;;;;27.13;16.03;;;;;;;0.43;64.55;96529.75;5073577;28;20503;-66
2021/01/17 01:56:13;;;;;;;26.13;15.20;;;;;;;0.25;64.82;96529.25;5072394;28;20513;-66
2021/01/17 01:58:39;;;;;;;29.10;16.37;;;;;;;0.42;64.57;96533.25;5073503;28;20421;-69
2021/01/17 02:01:05;;;;;;;23.90;15.03;;;;;;;0.48;64.56;96529.44;5072225;28;20783;-68
2021/01/17 02:03:31;;;;;;;27.40;15.27;;;;;;;0.43;64.33;96525.41;5057732;28;20265;-68
2021/01/17 02:05:56;;;;;;;28.60;14.90;;;;;;;0.53;64.13;96524.75;5073257;28;20598;-69
2021/01/17 02:08:38;;;;;;;24.97;15.00;;;;;;;0.45;64.00;96523.56;5071503;28;20206;-67
2021/01/17 02:11:17;;;;;;;25.60;14.73;;;;;;;0.30;64.38;96522.03;5072323;28;20769;-68
2021/01/17 02:13:49;;;;;;;24.53;14.70;;;;;;;0.18;65.08;96522.88;5073442;28;20416;-67
2021/01/17 02:16:15;;;;;;;25.57;14.10;;;;;;;0.29;64.86;96517.78;5072207;28;20444;-67
2021/01/17 02:18:42;;;;;;;27.87;15.00;;;;;;;0.36;64.90;96518.19;5072206;28;20464;-68
2021/01/17 02:21:09;;;;;;;25.57;15.07;;;;;;;0.40;64.57;96517.88;5072301;28;20452;-68
2021/01/17 02:23:55;;;;;;;25.90;13.80;;;;;;;0.32;64.37;96512.44;5071948;28;20425;-68
2021/01/17 02:26:21;;;;;;;26.10;14.67;;;;;;;0.39;64.75;96513.66;5057691;28;20623;-68
2021/01/17 02:28:47;;;;;;;24.00;13.63;;;;;;;0.41;64.69;96514.38;5063152;28;21021;-67
2021/01/17 02:31:14;;;;;;;23.80;13.33;;;;;;;0.49;64.32;96508.69;5071875;28;20201;-65
2021/01/17 02:33:40;;;;;;;27.20;15.03;;;;;;;0.28;64.35;96511.00;5057110;28;20441;-68
2021/01/17 02:36:51;;;;;;;26.17;14.30;;;;;;;0.35;64.76;96499.34;5066690;28;20423;-68
2021/01/17 02:39:29;;;;;;;22.50;12.60;;;;;;;0.39;64.58;96505.91;5051879;28;20499;-64
2021/01/17 02:42:02;;;;;;;28.13;15.20;;;;;;;0.51;64.45;96490.53;5071104;28;20464;-67
2021/01/17 02:44:30;;;;;;;26.77;14.57;;;;;;;0.64;64.20;96496.47;5071556;28;20799;-67
2021/01/17 02:46:57;;;;;;;29.40;14.83;;;;;;;0.67;63.38;96506.56;5071483;28;20456;-68
2021/01/17 02:49:22;;;;;;;25.03;14.50;;;;;;;0.60;63.59;96497.63;5072727;28;20425;-68
2021/01/17 02:51:49;;;;;;;23.07;13.70;;;;;;;0.63;63.95;96502.56;5063771;28;20459;-67
2021/01/17 02:54:28;;;;;;;25.10;13.87;;;;;;;0.67;64.01;96501.41;5064946;28;20177;-67
2021/01/17 02:57:02;;;;;;;24.37;13.00;;;;;;;0.59;64.01;96509.69;5072057;28;20506;-68
2021/01/17 02:59:38;;;;;;;26.70;14.80;;;;;;;0.53;64.23;96510.13;5072620;28;20800;-65
2021/01/17 03:02:04;;;;;;;27.13;14.10;;;;;;;0.49;63.88;96507.88;5068083;28;21013;-68
2021/01/17 03:04:39;;;;;;;26.70;14.80;;;;;;;0.66;63.94;96510.09;5061977;28;20942;-67
2021/01/17 03:07:06;;;;;;;25.40;13.07;;;;;;;0.61;63.94;96510.41;5071262;28;21049;-66
2021/01/17 03:09:33;;;;;;;24.97;14.03;;;;;;;0.53;64.05;96506.72;5056263;28;20891;-67
2021/01/17 03:12:03;;;;;;;25.67;13.73;;;;;;;0.66;64.03;96510.09;5069216;28;21180;-69
2021/01/17 03:14:35;;;;;;;21.80;13.27;;;;;;;0.48;64.04;96508.81;5071870;28;20421;-64
2021/01/17 03:17:04;;;;;;;25.37;12.70;;;;;;;0.43;63.80;96504.78;5072248;28;20942;-67
2021/01/17 03:19:29;;;;;;;27.93;15.50;;;;;;;0.34;64.71;96500.28;5072187;28;20950;-67
2021/01/17 03:21:55;;;;;;;25.40;14.27;;;;;;;0.42;64.11;96500.56;5071851;28;20447;-67
2021/01/17 03:24:21;;;;;;;24.37;14.17;;;;;;;0.39;64.72;96500.75;5071392;28;20546;-68
2021/01/17 03:26:47;;;;;;;26.00;13.10;;;;;;;0.48;64.47;96495.91;5071067;28;20601;-66
2021/01/17 03:29:12;;;;;;;22.23;13.67;;;;;;;0.56;64.85;96489.31;5071973;28;20206;-68
2021/01/17 03:31:38;;;;;;;27.37;14.73;;;;;;;0.60;64.33;96487.31;5062905;28;20196;-66
2021/01/17 03:34:04;;;;;;;27.50;14.00;;;;;;;0.62;63.93;96472.56;5057182;28;20648;-67
2021/01/17 03:36:29;;;;;;;25.17;13.87;;;;;;;0.64;64.44;96468.09;5071760;28;20688;-68
2021/01/17 03:38:55;;;;;;;28.33;14.47;;;;;;;0.70;64.25;96472.84;5071501;28;20510;-68
2021/01/17 03:41:23;;;;;;;23.23;13.83;;;;;;;0.70;64.09;96462.53;5069700;28;20206;-68
2021/01/17 03:43:48;;;;;;;22.90;13.23;;;;;;;0.67;63.97;96469.66;5071346;28;20233;-66
2021/01/17 03:46:14;;;;;;;26.23;15.93;;;;;;;0.74;63.86;96466.53;5077817;28;20410;-68
2021/01/17 03:48:40;;;;;;;24.33;13.37;;;;;;;0.81;63.93;96476.41;5081151;28;20248;-68
2021/01/17 03:51:05;;;;;;;25.27;14.10;;;;;;;0.80;64.02;96467.00;5072194;28;20199;-69
2021/01/17 03:53:31;;;;;;;30.40;15.20;;;;;;;0.82;63.20;96467.75;5072291;28;20268;-68
2021/01/17 03:55:57;;;;;;;25.73;14.90;;;;;;;0.82;63.35;96462.56;5071522;28;20184;-66
2021/01/17 03:58:23;;;;;;;22.83;13.50;;;;;;;0.81;63.18;96476.41;5070774;28;20695;-67
2021/01/17 04:00:48;;;;;;;26.20;14.60;;;;;;;0.81;63.23;96472.09;5071086;28;20269;-66
2021/01/17 04:03:14;;;;;;;27.00;15.90;;;;;;;0.77;63.64;96468.88;5056672;28;20532;-67
2021/01/17 04:05:40;;;;;;;25.60;14.10;;;;;;;0.82;63.32;96470.31;5070975;28;20231;-67
2021/01/17 04:08:06;;;;;;;27.43;14.17;;;;;;;0.81;63.03;96474.66;5070928;28;20470;-65
2021/01/17 04:10:31;;;;;;;31.67;15.63;;;;;;;0.69;63.84;96472.97;5071330;28;20180;-68
2021/01/17 04:12:57;;;;;;;25.77;13.73;;;;;;;0.81;63.67;96468.66;5069899;28;20248;-66
2021/01/17 04:15:23;;;;;;;23.80;15.20;;;;;;;0.73;63.37;96464.88;5051707;28;20177;-66
2021/01/17 04:17:49;;;;;;;30.10;13.50;;;;;;;0.71;63.77;96465.91;5058769;28;20185;-67
2021/01/17 04:20:14;;;;;;;25.13;14.97;;;;;;;0.80;63.50;96465.28;5066004;28;20424;-67
2021/01/17 04:22:40;;;;;;;29.37;16.43;;;;;;;0.85;63.36;96468.34;5059065;28;20242;-65
2021/01/17 04:25:07;;;;;;;25.40;14.97;;;;;;;0.70;63.61;96474.56;5043205;28;20733;-68
2021/01/17 04:27:33;;;;;;;27.67;15.70;;;;;;;0.73;63.63;96474.38;5051219;28;20190;-67
2021/01/17 04:29:58;;;;;;;25.87;15.33;;;;;;;0.75;63.43;96473.34;5051353;28;20468;-68
2021/01/17 04:32:24;;;;;;;25.70;15.03;;;;;;;0.84;63.28;96473.63;5050425;28;20442;-67
2021/01/17 04:34:51;;;;;;;25.90;13.90;;;;;;;0.92;63.17;96476.47;5050426;28;20681;-67
2021/01/17 04:37:24;;;;;;;27.10;14.77;;;;;;;0.83;63.09;96474.53;5056537;28;20440;-65
2021/01/17 04:39:50;;;;;;;29.67;15.47;;;;;;;0.81;63.30;96479.00;5049807;28;20450;-65
2021/01/17 04:42:18;;;;;;;26.33;14.73;;;;;;;0.88;63.59;96480.22;5050095;28;20508;-66
2021/01/17 04:44:54;;;;;;;25.30;15.03;;;;;;;0.85;63.87;96480.44;5049099;28;20873;-66
2021/01/17 04:47:21;;;;;;;26.57;15.13;;;;;;;0.95;63.36;96488.31;5049841;28;20854;-66
2021/01/17 04:49:53;;;;;;;29.10;15.57;;;;;;;0.84;63.38;96483.94;5050750;28;20426;-67
2021/01/17 04:52:25;;;;;;;26.73;15.17;;;;;;;0.84;63.37;96487.31;5051170;28;20440;-66
2021/01/17 04:54:53;;;;;;;32.50;16.17;;;;;;;0.87;63.75;96489.69;5047282;28;20429;-66
2021/01/17 04:57:45;;;;;;;24.97;14.60;;;;;;;0.96;63.53;96489.97;5050980;28;20421;-68
2021/01/17 05:00:12;;;;;;;30.83;15.97;;;;;;;1.02;63.13;96487.75;5042308;28;20452;-67
2021/01/17 05:02:48;;;;;;;24.73;13.60;;;;;;;0.91;63.28;96491.13;5032420;28;20486;-67
2021/01/17 05:05:24;;;;;;;28.53;15.00;;;;;;;0.94;63.18;96486.69;5042008;28;20425;-66
2021/01/17 05:07:58;;;;;;;24.70;13.93;;;;;;;0.94;62.95;96484.91;5050620;28;20458;-69
2021/01/17 05:10:34;;;;;;;26.10;14.50;;;;;;;0.94;63.37;96497.81;5050604;28;20424;-67
2021/01/17 05:13:10;;;;;;;26.40;14.90;;;;;;;0.93;63.21;96493.59;5050376;28;20464;-67
2021/01/17 05:15:38;;;;;;;27.70;14.70;;;;;;;0.83;63.50;96496.00;5051870;28;20464;-66
2021/01/17 05:18:05;;;;;;;26.77;15.60;;;;;;;0.93;63.70;96496.16;5051889;28;20461;-67
2021/01/17 05:20:30;;;;;;;29.30;15.43;;;;;;;0.93;63.46;96498.75;5049504;28;20448;-68
2021/01/17 05:22:57;;;;;;;27.00;14.53;;;;;;;1.01;63.57;96504.19;5050517;28;20529;-68
2021/01/17 05:25:26;;;;;;;29.30;15.53;;;;;;;1.04;63.34;96503.97;5046778;28;20661;-67
2021/01/17 05:27:52;;;;;;;27.23;14.17;;;;;;;1.05;63.22;96507.38;5050899;28;20972;-68
2021/01/17 05:30:18;;;;;;;26.97;14.93;;;;;;;0.97;63.40;96505.34;5052029;28;20472;-68
2021/01/17 05:32:50;;;;;;;27.80;15.40;;;;;;;1.10;63.04;96507.88;5054675;28;20510;-65
2021/01/17 05:35:18;;;;;;;29.00;15.70;;;;;;;1.00;63.01;96501.72;5054452;28;20429;-66
2021/01/17 05:38:02;;;;;;;25.87;14.13;;;;;;;1.09;63.70;96502.81;5053831;28;20869;-66
2021/01/17 05:40:32;;;;;;;26.33;14.60;;;;;;;1.13;63.21;96505.06;5054154;28;20421;-68
2021/01/17 05:42:58;;;;;;;27.37;15.23;;;;;;;1.07;63.11;96514.06;5055336;28;20537;-66
2021/01/17 05:45:24;;;;;;;25.60;14.53;;;;;;;1.12;63.37;96515.50;5055252;28;20425;-67
2021/01/17 05:47:54;;;;;;;29.93;16.70;;;;;;;1.16;63.71;96524.66;5071650;28;20657;-68
2021/01/17 05:50:20;;;;;;;31.30;17.63;;;;;;;1.12;63.76;96518.09;5055436;28;20426;-67
2021/01/17 05:52:57;;;;;;;32.90;16.73;;;;;;;1.21;63.37;96520.81;5054042;28;20433;-67
2021/01/17 05:55:32;;;;;;;27.27;15.10;;;;;;;1.27;63.49;96524.72;5052316;28;20503;-67
2021/01/17 05:58:21;;;;;;;31.47;15.90;;;;;;;1.31;63.71;96520.16;5053394;28;20424;-69
2021/01/17 06:00:47;;;;;;;32.90;16.73;;;;;;;1.27;63.55;96523.91;5053520;28;20414;-65
2021/01/17 06:03:17;;;;;;;27.83;16.10;;;;;;;1.31;64.73;96527.91;5053674;28;20465;-67
2021/01/17 06:05:46;;;;;;;29.97;16.73;;;;;;;1.27;65.00;96532.47;5053887;28;20183;-67
2021/01/17 06:08:12;;;;;;;27.43;15.47;;;;;;;1.28;65.23;96522.97;5053950;28;20433;-67
2021/01/17 06:10:40;;;;;;;32.57;17.17;;;;;;;1.08;65.48;96525.22;5060851;28;20478;-67
2021/01/17 06:13:06;;;;;;;33.63;17.60;;;;;;;1.24;64.96;96530.13;5068314;28;20474;-68
2021/01/17 06:15:32;;;;;;;29.63;16.30;;;;;;;1.23;65.34;96520.72;5052429;28;20885;-69
2021/01/17 06:17:57;;;;;;;39.50;18.50;;;;;;;1.12;66.28;96525.84;5052837;28;20190;-66
2021/01/17 06:20:27;;;;;;;32.07;16.50;;;;;;;1.21;66.07;96525.16;5051943;28;20657;-68
2021/01/17 06:22:57;;;;;;;29.80;16.73;;;;;;;1.28;65.55;96520.38;5053346;28;20573;-69
2021/01/17 06:25:32;;;;;;;32.33;16.67;;;;;;;1.17;65.85;96519.41;5047492;28;20437;-67
2021/01/17 06:28:09;;;;;;;33.00;17.80;;;;;;;1.26;65.58;96517.91;5053432;28;20444;-68
2021/01/17 06:30:35;;;;;;;31.60;17.10;;;;;;;1.30;65.04;96521.91;5051233;28;21021;-68
2021/01/17 06:33:02;;;;;;;33.37;17.70;;;;;;;1.41;65.41;96515.13;5055477;28;20479;-66
2021/01/17 06:35:32;;;;;;;31.47;16.87;;;;;;;1.36;65.31;96518.91;5066146;28;20196;-68
2021/01/17 06:38:14;;;;;;;29.67;16.30;;;;;;;1.35;65.24;96517.25;5072196;28;20436;-66
2021/01/17 06:40:40;;;;;;;32.70;17.17;;;;;;;1.32;65.24;96521.81;5069820;28;20428;-67
2021/01/17 06:43:09;;;;;;;31.87;17.50;;;;;;;1.21;65.69;96514.84;5071897;28;20488;-66
2021/01/17 06:45:42;;;;;;;32.73;17.83;;;;;;;1.23;65.90;96521.53;5072680;28;20986;-66
2021/01/17 06:48:08;;;;;;;35.50;18.53;;;;;;;1.27;66.23;96519.53;5072414;28;20763;-68
2021/01/17 06:50:34;;;;;;;33.67;17.67;;;;;;;1.26;65.89;96525.66;5070709;28;20420;-66
2021/01/17 06:53:00;;;;;;;37.80;19.07;;;;;;;1.20;66.24;96524.34;5072022;28;20486;-67
2021/01/17 06:55:26;;;;;;;30.87;16.90;;;;;;;1.27;66.39;96526.47;5077901;28;20529;-66
2021/01/17 06:57:52;;;;;;;37.47;18.10;;;;;;;1.23;66.27;96524.13;5080983;28;20194;-68
2021/01/17 07:00:19;;;;;;;33.97;18.60;;;;;;;1.31;66.11;96528.72;5073543;28;20435;-66
2021/01/17 07:02:53;;;;;;;35.10;19.10;;;;;;;1.30;66.03;96529.66;5072439;28;20555;-65
2021/01/17 07:05:44;;;;;;;43.43;19.47;;;;;;;1.33;65.70;96526.88;5068094;28;20419;-67
2021/01/17 07:08:34;;;;;;;40.30;19.47;;;;;;;1.42;65.63;96534.88;5052253;28;20859;-67
2021/01/17 07:11:13;;;;;;;41.80;20.50;;;;;;;1.46;65.80;96533.72;5052421;28;20520;-68
2021/01/17 07:13:42;;;;;;;41.00;20.80;;;;;;;1.34;65.76;96538.00;5071209;28;20425;-67
2021/01/17 07:16:12;;;;;;;41.67;21.13;;;;;;;1.43;65.88;96539.09;5045697;28;20425;-68
2021/01/17 07:18:38;;;;;;;41.73;21.10;;;;;;;1.46;65.78;96544.06;5072382;28;20419;-66
2021/01/17 07:21:05;;;;;;;37.73;18.40;;;;;;;1.58;66.06;96538.00;5070810;28;21109;-66
2021/01/17 07:23:32;;;;;;;40.60;20.30;;;;;;;1.65;65.44;96543.53;5070530;28;20425;-67
2021/01/17 07:26:00;;;;;;;41.50;20.43;;;;;;;1.67;65.00;96549.41;5071892;28;20426;-67
2021/01/17 07:28:30;;;;;;;38.53;20.60;;;;;;;1.64;64.76;96552.22;5064258;28;20448;-66
2021/01/17 07:31:07;;;;;;;37.03;19.10;;;;;;;1.57;64.89;96559.59;5070208;28;20420;-66
2021/01/17 07:33:38;;;;;;;35.27;19.70;;;;;;;1.53;64.72;96550.41;5064496;28;20519;-66
2021/01/17 07:36:06;;;;;;;43.03;19.80;;;;;;;1.61;65.09;96553.28;5070251;28;20453;-66
2021/01/17 07:38:35;;;;;;;36.90;19.73;;;;;;;1.67;64.79;96555.38;5072039;28;20428;-66
2021/01/17 07:41:11;;;;;;;33.40;17.93;;;;;;;1.71;65.00;96563.72;5055377;28;20529;-66
2021/01/17 07:43:42;;;;;;;33.30;18.37;;;;;;;1.71;64.60;96568.09;5051809;28;20918;-66
2021/01/17 07:46:09;;;;;;;38.03;18.50;;;;;;;1.75;64.85;96562.56;5062373;28;20814;-67
2021/01/17 07:48:35;;;;;;;34.70;18.50;;;;;;;1.76;65.21;96571.16;5072441;28;20435;-66
2021/01/17 07:51:05;;;;;;;37.00;19.00;;;;;;;1.84;64.74;96567.06;5070690;28;20946;-65
2021/01/17 07:53:36;;;;;;;34.07;18.67;;;;;;;1.67;64.61;96573.47;5070107;28;20508;-67
2021/01/17 07:56:14;;;;;;;32.77;17.20;;;;;;;1.79;64.32;96573.50;5071078;28;20419;-66
2021/01/17 07:58:43;;;;;;;36.63;18.67;;;;;;;1.82;64.47;96575.88;5071699;28;20420;-68
2021/01/17 08:01:35;;;;;;;31.73;17.40;;;;;;;1.86;64.43;96582.47;5070178;28;20463;-68
2021/01/17 08:04:03;;;;;;;37.27;20.13;;;;;;;1.99;64.89;96578.03;5051108;28;20819;-66
2021/01/17 08:06:35;;;;;;;34.70;19.00;;;;;;;2.13;64.15;96587.34;5063755;28;20418;-66
2021/01/17 08:09:07;;;;;;;34.87;20.07;;;;;;;2.18;64.35;96586.19;5062329;28;20447;-66
2021/01/17 08:11:52;;;;;;;34.23;19.27;;;;;;;2.22;64.17;96583.25;5063301;28;20946;-66
2021/01/17 08:14:20;;;;;;;36.37;18.27;;;;;;;2.33;63.81;96584.19;5058010;28;20419;-68
2021/01/17 08:17:02;;;;;;;38.20;19.03;;;;;;;2.33;63.48;96592.78;5071298;28;20421;-67
2021/01/17 08:19:55;;;;;;;36.90;19.07;;;;;;;2.34;63.10;96591.03;5071737;28;20480;-68
2021/01/17 08:22:21;;;;;;;40.13;19.33;;;;;;;2.37;63.28;96598.56;5058767;28;20518;-67
2021/01/17 08:24:47;;;;;;;32.73;18.47;;;;;;;2.45;63.43;96596.19;5068627;28;20428;-65
2021/01/17 08:27:32;;;;;;;44.20;19.20;;;;;;;2.40;63.34;96599.13;5069585;28;20679;-67
2021/01/17 08:30:06;;;;;;;36.00;19.73;;;;;;;2.52;63.21;96597.38;5070273;28;20193;-67
2021/01/17 08:35:28;;;;;;;34.97;19.93;;;;;;;2.50;62.79;96601.88;5062323;28;20433;-65
2021/01/17 08:38:06;;;;;;;36.23;18.27;;;;;;;2.48;62.46;96597.72;5070284;28;20440;-68
2021/01/17 08:40:32;;;;;;;32.23;18.60;;;;;;;2.63;62.77;96598.34;5071261;28;20436;-66
2021/01/17 08:43:05;;;;;;;31.20;18.17;;;;;;;2.65;63.00;96599.84;5060638;28;20464;-68
2021/01/17 08:45:38;;;;;;;32.90;18.37;;;;;;;2.74;62.58;96606.91;5071357;28;20193;-65
2021/01/17 08:48:16;;;;;;;33.37;18.53;;;;;;;2.78;62.63;96610.06;5069654;28;21006;-66
2021/01/17 08:50:43;;;;;;;40.07;21.20;;;;;;;2.86;62.69;96615.50;5062779;28;20475;-68
2021/01/17 08:53:10;;;;;;;33.50;18.27;;;;;;;2.96;62.26;96613.00;5071020;28;20503;-67
2021/01/17 08:55:44;;;;;;;34.70;18.77;;;;;;;2.96;61.99;96623.38;5062759;28;20424;-67
2021/01/17 08:58:14;;;;;;;37.93;18.80;;;;;;;3.05;61.95;96632.19;5071486;28;20781;-67
2021/01/17 09:01:06;;;;;;;41.23;18.63;;;;;;;3.14;62.70;96635.84;5061698;28;20429;-67
2021/01/17 09:03:41;;;;;;;29.63;17.53;;;;;;;3.27;62.01;96638.31;5058924;28;20434;-65
2021/01/17 09:06:12;;;;;;;30.50;17.53;;;;;;;3.27;61.99;96635.72;5072133;28;20495;-67
2021/01/17 09:08:42;;;;;;;37.73;19.27;;;;;;;3.40;62.08;96648.50;5074652;28;20420;-67
2021/01/17 09:11:31;;;;;;;62.77;24.43;;;;;;;3.47;61.80;96642.72;5074512;28;20432;-66
2021/01/17 09:14:15;;;;;;;33.00;19.20;;;;;;;3.41;62.38;96650.16;5073041;28;20542;-68
2021/01/17 09:16:53;;;;;;;31.17;17.13;;;;;;;3.33;61.81;96649.00;5074337;28;20432;-69
2021/01/17 09:19:21;;;;;;;31.13;18.23;;;;;;;3.52;61.97;96648.38;5059853;28;20444;-67
2021/01/17 09:21:49;;;;;;;32.27;17.23;;;;;;;3.61;61.16;96648.56;5073523;28;20460;-66
2021/01/17 09:24:17;;;;;;;25.50;15.90;;;;;;;3.22;61.03;96655.00;5074471;28;20416;-66
2021/01/17 09:26:48;;;;;;;31.73;17.17;;;;;;;3.45;62.10;96660.16;5074592;28;20431;-68
2021/01/17 09:29:27;;;;;;;28.07;15.70;;;;;;;3.42;61.60;96659.56;5059600;28;20424;-66
2021/01/17 09:31:59;;;;;;;34.23;16.50;;;;;;;2.81;63.48;96661.63;5074172;28;20548;-66
2021/01/17 09:34:27;;;;;;;26.93;15.57;;;;;;;3.03;63.60;96658.22;5065969;28;20460;-68
2021/01/17 09:36:54;;;;;;;25.97;15.00;;;;;;;2.84;64.72;96660.53;5074030;28;20782;-68
2021/01/17 09:39:29;;;;;;;26.27;15.50;;;;;;;2.43;65.87;96665.34;5073616;28;20927;-67
2021/01/17 09:41:55;;;;;;;29.80;15.37;;;;;;;2.13;67.08;96666.69;5073281;28;21006;-68
2021/01/17 09:44:21;;;;;;;28.50;15.90;;;;;;;2.82;66.29;96673.63;5072832;28;20473;-68
2021/01/17 09:46:47;;;;;;;30.93;15.97;;;;;;;3.32;64.00;96669.81;5073870;28;20277;-68
2021/01/17 09:49:13;;;;;;;28.47;14.43;;;;;;;3.51;63.37;96672.63;5074148;28;20493;-69
2021/01/17 09:51:45;;;;;;;25.03;14.57;;;;;;;3.18;63.58;96673.50;5073937;28;20209;-68
2021/01/17 09:54:10;;;;;;;26.20;14.80;;;;;;;3.56;63.51;96671.44;5074544;28;20887;-68
2021/01/17 09:56:42;;;;;;;20.57;12.70;;;;;;;3.85;62.57;96674.28;5057634;28;20430;-67
2021/01/17 09:59:15;;;;;;;22.20;13.63;;;;;;;3.54;62.14;96680.16;5072958;28;20216;-68
2021/01/17 10:01:42;;;;;;;24.97;14.17;;;;;;;3.69;62.44;96685.91;5075089;28;20463;-68
2021/01/17 10:04:08;;;;;;;23.00;14.20;;;;;;;3.97;62.52;96675.09;5069040;28;20823;-68
2021/01/17 10:06:34;;;;;;;22.00;13.47;;;;;;;4.08;62.04;96680.22;5081641;28;20469;-68
2021/01/17 10:09:01;;;;;;;19.53;12.80;;;;;;;3.67;62.19;96684.34;5080076;28;20365;-69
2021/01/17 10:11:26;;;;;;;22.80;12.50;;;;;;;3.87;62.36;96680.19;5074170;28;20506;-67
2021/01/17 10:13:52;;;;;;;21.90;12.20;;;;;;;3.78;63.09;96681.72;5075692;28;20432;-68
2021/01/17 10:16:24;;;;;;;26.13;13.33;;;;;;;3.74;62.61;96685.53;5074131;28;20182;-68
2021/01/17 10:18:50;;;;;;;36.37;14.10;;;;;;;3.81;62.82;96681.50;5062728;28;20187;-66
2021/01/17 10:21:18;;;;;;;25.80;13.30;;;;;;;4.17;61.89;96680.41;5076143;28;20437;-68
2021/01/17 10:23:44;;;;;;;20.47;13.10;;;;;;;4.12;61.93;96681.63;5073755;28;20421;-69
2021/01/17 10:26:12;;;;;;;20.50;12.63;;;;;;;4.09;62.14;96681.88;5066521;28;20504;-66
2021/01/17 10:28:38;;;;;;;22.20;12.00;;;;;;;4.06;61.83;96679.53;5074351;28;20830;-69
2021/01/17 10:31:04;;;;;;;20.00;12.63;;;;;;;4.15;61.94;96689.16;5073864;28;20447;-67
2021/01/17 10:33:30;;;;;;;16.57;11.17;;;;;;;4.28;62.09;96682.97;5068376;28;20830;-68
2021/01/17 10:35:56;;;;;;;25.00;12.87;;;;;;;3.94;62.33;96688.28;5068077;28;20186;-68
2021/01/17 10:38:23;;;;;;;20.17;12.23;;;;;;;4.32;61.10;96681.75;5072646;28;20532;-68
2021/01/17 10:40:49;;;;;;;20.87;12.97;;;;;;;4.23;60.89;96685.94;5072899;28;20439;-69
2021/01/17 10:43:29;;;;;;;21.70;12.30;;;;;;;4.42;61.00;96690.44;5072714;28;20488;-67
2021/01/17 10:46:15;;;;;;;21.13;13.07;;;;;;;4.63;61.04;96681.00;5071606;28;20420;-65
2021/01/17 10:48:50;;;;;;;26.93;14.10;;;;;;;4.81;59.82;96678.63;5060861;28;20439;-67
2021/01/17 10:51:20;;;;;;;23.47;13.30;;;;;;;4.77;60.15;96675.47;5071534;28;20448;-67
2021/01/17 10:53:49;;;;;;;20.60;12.30;;;;;;;4.25;60.82;96681.44;5070589;28;20452;-68
2021/01/17 10:56:20;;;;;;;23.13;14.07;;;;;;;4.50;61.03;96674.22;5070688;28;20440;-66
2021/01/17 10:58:47;;;;;;;21.83;12.37;;;;;;;3.71;62.10;96685.78;5072559;28;20435;-67
2021/01/17 11:01:13;;;;;;;22.07;12.17;;;;;;;3.60;63.39;96685.81;5071230;28;20453;-69
2021/01/17 11:03:41;;;;;;;20.60;11.53;;;;;;;3.57;64.26;96683.44;5064569;28;20452;-67
2021/01/17 11:06:15;;;;;;;19.83;11.17;;;;;;;3.94;63.45;96677.91;5068287;28;20186;-67
2021/01/17 11:08:46;;;;;;;15.40;10.30;;;;;;;3.67;63.88;96680.00;5059981;28;20552;-67
2021/01/17 11:11:14;;;;;;;17.50;10.40;;;;;;;3.96;63.55;96676.03;5071761;28;20523;-70
2021/01/17 11:13:40;;;;;;;16.83;10.07;;;;;;;3.84;63.59;96686.44;5071547;28;20523;-69
2021/01/17 11:16:06;;;;;;;24.40;10.50;;;;;;;3.95;64.06;96679.56;5071016;28;20521;-69
2021/01/17 11:18:32;;;;;;;17.40;10.63;;;;;;;3.60;64.03;96690.97;5072126;28;20931;-67
2021/01/17 11:21:02;;;;;;;19.63;11.03;;;;;;;3.77;63.90;96682.72;5071996;28;20429;-68
2021/01/17 11:23:28;;;;;;;19.13;10.20;;;;;;;4.00;63.57;96682.63;5072288;28;20444;-68
2021/01/17 11:26:02;;;;;;;24.13;11.00;;;;;;;4.04;63.28;96681.41;5071868;28;20898;-69
2021/01/17 11:28:29;;;;;;;25.70;10.70;;;;;;;4.03;63.77;96686.72;5069335;28;20423;-67
2021/01/17 11:30:56;;;;;;;21.53;11.57;;;;;;;4.21;63.40;96687.84;5070964;28;20433;-67
2021/01/17 11:33:29;;;;;;;16.63;9.50;;;;;;;4.35;62.22;96689.28;5068337;28;20449;-68
2021/01/17 11:36:01;;;;;;;17.93;10.30;;;;;;;4.22;62.37;96686.06;5068521;28;20421;-68
2021/01/17 11:38:53;;;;;;;14.87;9.80;;;;;;;3.93;63.73;96694.41;5073629;28;20516;-70